createdAt,value
2022-08-26T13:28:29.738Z,96067.66
2022-08-26T13:30:56.121Z,96062.13
2022-08-26T13:33:22.670Z,96067.94
2022-08-26T13:35:49.211Z,96063.94
2022-08-26T13:38:18.571Z,96065.84
2022-08-26T13:40:59.801Z,96058.97
2022-08-26T13:43:27.765Z,96059.56
2022-08-26T13:45:54.499Z,96059.56
2022-08-26T13:48:23.334Z,96054.44
2022-08-26T13:50:50.571Z,96054.25
2022-08-26T13:53:17.635Z,96045.84
2022-08-26T13:55:44.475Z,96035.84
2022-08-26T13:58:11.679Z,96033.13
2022-08-26T14:00:39.715Z,96027.44
2022-08-26T14:03:10.223Z,96029.06
2022-08-26T14:05:39.047Z,96026.66
2022-08-26T14:08:05.655Z,96025.56
2022-08-26T14:10:32.582Z,96035.31
2022-08-26T14:12:59.066Z,96026.09
2022-08-26T14:15:25.824Z,96024.22
2022-08-26T14:17:54.168Z,96020.97
2022-08-26T14:20:25.805Z,96021.78
2022-08-26T14:23:12.622Z,96026.66
2022-08-26T14:25:39.061Z,96027.19
2022-08-26T14:28:05.459Z,96027.69
2022-08-26T14:30:31.998Z,96038.22
2022-08-26T14:33:01.712Z,96023.03
2022-08-26T14:35:30.328Z,96016.31
2022-08-26T14:37:57.375Z,96012.53
2022-08-26T14:40:28.415Z,96027.38
2022-08-26T14:42:55.045Z,96015.50
2022-08-26T14:45:27.264Z,95993.59
2022-08-26T14:47:56.478Z,95998.44
2022-08-26T14:50:25.142Z,96001.16
2022-08-26T14:53:27.645Z,96002.50
2022-08-26T14:55:54.029Z,95988.22
2022-08-26T14:58:20.344Z,95996.34
2022-08-26T15:00:46.672Z,96002.56
2022-08-26T15:05:47.980Z,96015.00
2022-08-26T15:08:14.730Z,96015.00
2022-08-26T15:10:41.504Z,96004.44
2022-08-26T15:13:07.832Z,96005.28
2022-08-26T15:15:34.269Z,95994.97
2022-08-26T15:18:00.618Z,96015.81
2022-08-26T15:20:27.392Z,96016.63
2022-08-26T15:22:53.730Z,96028.25
2022-08-26T15:25:20.132Z,96017.81
2022-08-26T15:27:46.549Z,96020.44
2022-08-26T15:30:13.217Z,96021.66
2022-08-26T15:32:39.685Z,96050.06
2022-08-26T15:35:09.030Z,96041.47
2022-08-26T15:37:36.152Z,96038.78
2022-08-26T15:40:03.622Z,96034.09
2022-08-26T15:42:30.119Z,96035.84
2022-08-26T15:44:56.607Z,96041.69
2022-08-26T15:47:23.852Z,96043.38
2022-08-26T15:49:50.247Z,96039.91
2022-08-26T15:52:17.038Z,96052.72
2022-08-26T15:54:43.503Z,96052.91
2022-08-26T15:57:12.338Z,96065.53
2022-08-26T15:59:40.094Z,96069.69
2022-08-26T16:02:07.060Z,96075.97
2022-08-26T16:04:33.495Z,96075.03
2022-08-26T16:07:00.085Z,96082.56
2022-08-26T16:09:27.681Z,96091.13
2022-08-26T16:11:54.897Z,96087.47
2022-08-26T16:14:21.267Z,96086.75
2022-08-26T16:16:47.863Z,96096.88
2022-08-26T16:19:14.249Z,96092.19
2022-08-26T16:21:41.435Z,96099.00
2022-08-26T16:24:07.843Z,96099.34
2022-08-26T16:26:36.987Z,96104.00
2022-08-26T16:29:07.511Z,96106.31
2022-08-26T16:31:33.946Z,96106.13
2022-08-26T16:34:00.472Z,96103.06
2022-08-26T16:36:27.404Z,96098.34
2022-08-26T16:38:56.071Z,96099.69
2022-08-26T16:41:27.409Z,96106.69
2022-08-26T16:43:54.460Z,96115.09
2022-08-26T16:46:25.368Z,96113.13
2022-08-26T16:48:54.181Z,96106.63
2022-08-26T16:51:22.946Z,96106.66
2022-08-26T16:53:51.155Z,96104.09
2022-08-26T16:56:20.586Z,96102.78
2022-08-26T16:58:50.519Z,96107.34
2022-08-26T17:01:17.463Z,96104.66
2022-08-26T17:03:43.882Z,96102.06
2022-08-26T17:06:10.622Z,96108.88
2022-08-26T17:08:38.305Z,96113.78
2022-08-26T17:11:05.334Z,96118.72
2022-08-26T17:13:35.207Z,96118.97
2022-08-26T17:16:04.613Z,96132.22
2022-08-26T17:18:32.309Z,96144.72
2022-08-26T17:21:07.038Z,96141.16
2022-08-26T17:23:34.089Z,96149.22
2022-08-26T17:26:00.662Z,96161.00
2022-08-26T17:28:27.322Z,96160.75
2022-08-26T17:30:56.246Z,96163.78
2022-08-26T17:33:24.782Z,96176.69
2022-08-26T17:35:52.890Z,96174.09
2022-08-26T17:38:19.703Z,96179.09
2022-08-26T17:40:46.078Z,96194.78
2022-08-26T17:43:12.720Z,96193.34
2022-08-26T17:45:40.597Z,96193.81
2022-08-26T17:48:08.402Z,96203.94
2022-08-26T17:50:35.548Z,96197.91
2022-08-26T17:53:01.902Z,96208.03
2022-08-26T17:55:29.069Z,96216.50
2022-08-26T17:57:55.442Z,96221.31
2022-08-26T18:00:26.380Z,96218.25
2022-08-26T18:02:56.696Z,96221.47
2022-08-26T18:05:23.287Z,96218.47
2022-08-26T18:07:49.853Z,96227.69
2022-08-26T18:10:18.929Z,96228.59
2022-08-26T18:12:45.409Z,96224.56
2022-08-26T18:15:15.542Z,96217.72
2022-08-26T18:17:42.523Z,96222.09
2022-08-26T18:20:12.720Z,96228.31
2022-08-26T18:22:39.511Z,96229.13
2022-08-26T18:25:07.331Z,96231.16
2022-08-26T18:27:35.976Z,96233.81
2022-08-26T18:30:05.005Z,96235.47
2022-08-26T18:32:31.443Z,96236.50
2022-08-26T18:34:57.983Z,96246.91
2022-08-26T18:37:25.791Z,96248.16
2022-08-26T18:39:54.496Z,96245.72
2022-08-26T18:42:20.976Z,96251.94
2022-08-26T18:44:50.731Z,96256.88
2022-08-26T18:47:17.535Z,96266.91
2022-08-26T18:49:44.142Z,96263.81
2022-08-26T18:52:10.681Z,96280.44
2022-08-26T18:54:37.115Z,96271.13
2022-08-26T18:57:03.756Z,96262.78
2022-08-26T18:59:33.465Z,96269.16
2022-08-26T19:02:00.074Z,96275.16
2022-08-26T19:04:27.020Z,96271.34
2022-08-26T19:06:53.826Z,96276.03
2022-08-26T19:09:20.963Z,96278.19
2022-08-26T19:11:49.669Z,96268.53
2022-08-26T19:14:16.675Z,96275.34
2022-08-26T19:16:45.929Z,96281.47
2022-08-26T19:19:13.291Z,96289.25
2022-08-26T19:21:39.876Z,96280.63
2022-08-26T19:24:12.205Z,96296.84
2022-08-26T19:26:39.022Z,96292.75
2022-08-26T19:29:05.754Z,96304.66
2022-08-26T19:31:32.199Z,96304.84
2022-08-26T19:33:58.943Z,96312.41
2022-08-26T19:36:26.506Z,96312.66
2022-08-26T19:38:53.578Z,96313.81
2022-08-26T19:41:26.652Z,96309.69
2022-08-26T19:44:06.972Z,96309.28
2022-08-26T19:46:33.511Z,96300.06
2022-08-26T19:48:59.979Z,96303.16
2022-08-26T19:51:32.973Z,96302.78
2022-08-26T19:56:30.268Z,96313.63
2022-08-26T19:58:57.088Z,96312.19
2022-08-26T20:01:23.788Z,96317.13
2022-08-26T20:03:50.368Z,96323.50
2022-08-26T20:06:16.911Z,96323.09
2022-08-26T20:08:44.501Z,96324.28
2022-08-26T20:11:15.727Z,96309.94
2022-08-26T20:13:43.338Z,96312.72
2022-08-26T20:16:11.794Z,96305.38
2022-08-26T20:21:17.999Z,96303.94
2022-08-26T20:23:44.566Z,96303.94
2022-08-26T20:26:11.016Z,96304.69
2022-08-26T20:28:37.494Z,96310.78
2022-08-26T20:31:04.035Z,96313.75
2022-08-26T20:33:31.585Z,96315.63
2022-08-26T20:36:13.087Z,96315.91
2022-08-26T20:38:39.400Z,96314.06
2022-08-26T20:41:05.801Z,96324.78
2022-08-26T20:43:32.466Z,96329.34
2022-08-26T20:45:59.494Z,96339.34
2022-08-26T20:48:25.854Z,96336.78
2022-08-26T20:50:56.943Z,96339.25
2022-08-26T20:53:24.286Z,96343.00
2022-08-26T20:55:53.727Z,96347.50
2022-08-26T20:58:23.025Z,96358.53
2022-08-26T21:00:49.446Z,96353.25
2022-08-26T21:03:15.840Z,96351.59
2022-08-26T21:05:42.450Z,96352.03
2022-08-26T21:08:09.782Z,96367.59
2022-08-26T21:10:39.208Z,96365.00
2022-08-26T21:13:05.545Z,96375.44
2022-08-26T21:15:31.889Z,96371.56
2022-08-26T21:17:59.060Z,96381.00
2022-08-26T21:20:25.483Z,96391.06
2022-08-26T21:22:52.446Z,96382.22
2022-08-26T21:25:18.942Z,96390.25
2022-08-26T21:27:45.444Z,96388.50
2022-08-26T21:30:15.094Z,96389.84
2022-08-26T21:32:41.854Z,96387.97
2022-08-26T21:35:08.905Z,96384.06
2022-08-26T21:37:35.231Z,96382.03
2022-08-26T21:40:05.310Z,96378.13
2022-08-26T21:42:33.960Z,96379.16
2022-08-26T21:45:01.597Z,96386.97
2022-08-26T21:47:28.460Z,96382.84
2022-08-26T21:49:54.821Z,96385.72
2022-08-26T21:52:21.354Z,96387.56
2022-08-26T21:54:49.299Z,96383.25
2022-08-26T21:57:16.321Z,96388.59
2022-08-26T21:59:42.699Z,96387.13
2022-08-26T22:02:09.157Z,96390.16
2022-08-26T22:04:36.042Z,96379.72
2022-08-26T22:07:03.345Z,96376.06
2022-08-26T22:09:31.528Z,96376.91
2022-08-26T22:11:58.664Z,96376.25
2022-08-26T22:14:30.383Z,96376.69
2022-08-26T22:16:59.052Z,96376.69
2022-08-26T22:19:25.594Z,96374.22
2022-08-26T22:21:54.701Z,96379.47
2022-08-26T22:24:23.078Z,96375.41
2022-08-26T22:26:50.245Z,96378.75
2022-08-26T22:29:18.539Z,96374.63
2022-08-26T22:31:45.238Z,96364.13
2022-08-26T22:34:17.082Z,96358.16
2022-08-26T22:36:46.456Z,96368.84
2022-08-26T22:39:15.342Z,96379.06
2022-08-26T22:41:43.287Z,96381.28
2022-08-26T22:44:11.513Z,96385.56
2022-08-26T22:46:38.515Z,96392.94
2022-08-26T22:49:05.340Z,96392.13
2022-08-26T22:51:32.022Z,96392.56
2022-08-26T22:53:58.372Z,96391.69
2022-08-26T22:56:24.761Z,96399.88
2022-08-26T22:58:51.156Z,96398.50
2022-08-26T23:01:17.522Z,96395.63
2022-08-26T23:03:44.751Z,96380.22
2022-08-26T23:06:11.560Z,96388.44
2022-08-26T23:08:39.420Z,96385.59
2022-08-26T23:11:12.805Z,96383.50
2022-08-26T23:13:39.183Z,96375.50
2022-08-26T23:16:09.508Z,96376.94
2022-08-26T23:18:36.356Z,96386.22
2022-08-26T23:21:02.732Z,96379.63
2022-08-26T23:23:29.063Z,96376.09
2022-08-26T23:25:55.667Z,96379.59
2022-08-26T23:28:22.917Z,96382.28
2022-08-26T23:30:49.992Z,96379.22
2022-08-26T23:33:16.606Z,96381.44
2022-08-26T23:35:43.854Z,96381.03
2022-08-26T23:38:14.162Z,96377.75
2022-08-26T23:40:41.271Z,96372.59
2022-08-26T23:43:11.167Z,96372.75
2022-08-26T23:45:37.667Z,96373.66
2022-08-26T23:48:04.467Z,96371.78
2022-08-26T23:50:50.084Z,96366.28
2022-08-26T23:53:19.881Z,96358.53
2022-08-26T23:55:48.889Z,96366.84
2022-08-26T23:58:17.697Z,96361.03
